sensor_id;sensor_type;location;lat;lon;timestamp;pressure;altitude;pressure_sealevel;temperature;humidity
62600;BME280;48671;48.922;2.346;2024-03-02T00:00:13;99658.31;;;8.02;72.09
62600;BME280;48671;48.922;2.346;2024-03-02T00:02:41;99680.50;;;8.07;71.69
62600;BME280;48671;48.922;2.346;2024-03-02T00:05:07;99676.25;;;8.06;71.91
62600;BME280;48671;48.922;2.346;2024-03-02T00:07:33;99662.03;;;7.96;72.07
62600;BME280;48671;48.922;2.346;2024-03-02T00:09:59;99671.19;;;8.03;72.32
62600;BME280;48671;48.922;2.346;2024-03-02T00:12:24;99650.03;;;7.93;72.52
62600;BME280;48671;48.922;2.346;2024-03-02T00:14:51;99658.03;;;7.89;71.96
62600;BME280;48671;48.922;2.346;2024-03-02T00:17:24;99681.56;;;8.03;72.19
62600;BME280;48671;48.922;2.346;2024-03-02T00:19:50;99682.34;;;8.05;72.35
62600;BME280;48671;48.922;2.346;2024-03-02T00:22:15;99674.84;;;7.99;72.26
62600;BME280;48671;48.922;2.346;2024-03-02T00:24:41;99686.03;;;8.00;72.17
62600;BME280;48671;48.922;2.346;2024-03-02T00:27:07;99675.09;;;7.93;72.43
62600;BME280;48671;48.922;2.346;2024-03-02T00:29:32;99647.38;;;7.76;72.25
62600;BME280;48671;48.922;2.346;2024-03-02T00:32:00;99696.25;;;8.03;72.50
62600;BME280;48671;48.922;2.346;2024-03-02T00:34:26;99694.78;;;7.97;72.15
62600;BME280;48671;48.922;2.346;2024-03-02T00:36:51;99680.41;;;7.90;72.61
62600;BME280;48671;48.922;2.346;2024-03-02T00:39:18;99696.34;;;8.01;72.49
62600;BME280;48671;48.922;2.346;2024-03-02T00:41:43;99703.25;;;8.01;72.83
62600;BME280;48671;48.922;2.346;2024-03-02T00:44:12;99663.81;;;7.75;73.05
62600;BME280;48671;48.922;2.346;2024-03-02T00:46:39;99699.91;;;7.98;72.93
62600;BME280;48671;48.922;2.346;2024-03-02T00:49:11;99681.59;;;7.83;72.60
62600;BME280;48671;48.922;2.346;2024-03-02T00:51:39;99708.44;;;8.01;72.49
62600;BME280;48671;48.922;2.346;2024-03-02T00:54:05;99699.38;;;7.90;72.82
62600;BME280;48671;48.922;2.346;2024-03-02T00:56:32;99713.13;;;7.92;73.23
62600;BME280;48671;48.922;2.346;2024-03-02T00:58:58;99713.25;;;7.89;73.26
62600;BME280;48671;48.922;2.346;2024-03-02T01:01:23;99719.13;;;7.93;73.62
62600;BME280;48671;48.922;2.346;2024-03-02T01:03:49;99701.50;;;7.82;73.56
62600;BME280;48671;48.922;2.346;2024-03-02T01:06:15;99724.31;;;7.93;73.31
62600;BME280;48671;48.922;2.346;2024-03-02T01:08:41;99726.91;;;7.93;73.49
62600;BME280;48671;48.922;2.346;2024-03-02T01:11:06;99713.47;;;7.85;73.43
62600;BME280;48671;48.922;2.346;2024-03-02T01:13:32;99725.94;;;7.95;73.54
62600;BME280;48671;48.922;2.346;2024-03-02T01:15:57;99695.59;;;7.79;73.62
62600;BME280;48671;48.922;2.346;2024-03-02T01:18:23;99725.84;;;7.97;73.53
62600;BME280;48671;48.922;2.346;2024-03-02T01:20:49;99718.56;;;7.86;73.68
62600;BME280;48671;48.922;2.346;2024-03-02T01:23:21;99678.06;;;7.65;73.54
62600;BME280;48671;48.922;2.346;2024-03-02T01:25:47;99725.94;;;7.95;73.67
62600;BME280;48671;48.922;2.346;2024-03-02T01:28:13;99704.06;;;7.82;73.78
62600;BME280;48671;48.922;2.346;2024-03-02T01:30:38;99707.56;;;7.81;73.55
62600;BME280;48671;48.922;2.346;2024-03-02T01:33:04;99720.75;;;7.95;73.80
62600;BME280;48671;48.922;2.346;2024-03-02T01:35:31;99724.41;;;7.91;73.40
62600;BME280;48671;48.922;2.346;2024-03-02T01:37:56;99712.34;;;7.90;73.87
62600;BME280;48671;48.922;2.346;2024-03-02T01:40:21;99713.00;;;7.95;73.58
62600;BME280;48671;48.922;2.346;2024-03-02T01:42:48;99698.91;;;7.82;74.07
62600;BME280;48671;48.922;2.346;2024-03-02T01:45:13;99704.13;;;7.81;74.09
62600;BME280;48671;48.922;2.346;2024-03-02T01:47:39;99710.88;;;7.85;73.78
62600;BME280;48671;48.922;2.346;2024-03-02T01:50:04;99698.25;;;7.77;73.61
62600;BME280;48671;48.922;2.346;2024-03-02T01:52:30;99672.97;;;7.63;73.98
62600;BME280;48671;48.922;2.346;2024-03-02T01:54:55;99687.97;;;7.76;74.49
62600;BME280;48671;48.922;2.346;2024-03-02T01:57:21;99689.63;;;7.77;74.34
62600;BME280;48671;48.922;2.346;2024-03-02T01:59:47;99668.00;;;7.59;74.59
62600;BME280;48671;48.922;2.346;2024-03-02T02:02:16;99687.38;;;7.69;73.93
62600;BME280;48671;48.922;2.346;2024-03-02T02:04:41;99690.03;;;7.67;74.65
62600;BME280;48671;48.922;2.346;2024-03-02T02:07:07;99679.19;;;7.59;75.44
62600;BME280;48671;48.922;2.346;2024-03-02T02:09:32;99691.53;;;7.73;74.68
62600;BME280;48671;48.922;2.346;2024-03-02T02:11:58;99646.84;;;7.49;74.48
62600;BME280;48671;48.922;2.346;2024-03-02T02:14:23;99662.81;;;7.59;74.63
62600;BME280;48671;48.922;2.346;2024-03-02T02:16:49;99668.75;;;7.61;74.29
62600;BME280;48671;48.922;2.346;2024-03-02T02:19:14;99684.09;;;7.65;74.50
62600;BME280;48671;48.922;2.346;2024-03-02T02:21:42;99687.38;;;7.69;74.52
62600;BME280;48671;48.922;2.346;2024-03-02T02:24:08;99670.63;;;7.57;74.55
62600;BME280;48671;48.922;2.346;2024-03-02T02:26:33;99644.25;;;7.49;74.36
62600;BME280;48671;48.922;2.346;2024-03-02T02:28:58;99654.47;;;7.52;74.57
62600;BME280;48671;48.922;2.346;2024-03-02T02:31:24;99635.13;;;7.40;74.73
62600;BME280;48671;48.922;2.346;2024-03-02T02:33:49;99653.47;;;7.55;74.88
62600;BME280;48671;48.922;2.346;2024-03-02T02:36:14;99639.78;;;7.53;74.65
62600;BME280;48671;48.922;2.346;2024-03-02T02:38:46;99633.56;;;7.57;74.31
62600;BME280;48671;48.922;2.346;2024-03-02T02:41:13;99660.84;;;7.64;74.57
62600;BME280;48671;48.922;2.346;2024-03-02T02:43:38;99642.25;;;7.56;74.77
62600;BME280;48671;48.922;2.346;2024-03-02T02:46:05;99655.81;;;7.61;75.28
62600;BME280;48671;48.922;2.346;2024-03-02T02:48:30;99634.59;;;7.53;74.52
62600;BME280;48671;48.922;2.346;2024-03-02T02:50:56;99620.31;;;7.44;75.37
62600;BME280;48671;48.922;2.346;2024-03-02T02:53:21;99613.38;;;7.44;74.93
62600;BME280;48671;48.922;2.346;2024-03-02T02:55:46;99613.50;;;7.41;75.15
62600;BME280;48671;48.922;2.346;2024-03-02T02:58:12;99621.78;;;7.49;75.25
62600;BME280;48671;48.922;2.346;2024-03-02T03:00:38;99609.03;;;7.45;75.23
62600;BME280;48671;48.922;2.346;2024-03-02T03:03:03;99625.25;;;7.48;74.94
62600;BME280;48671;48.922;2.346;2024-03-02T03:05:29;99621.59;;;7.54;74.73
62600;BME280;48671;48.922;2.346;2024-03-02T03:07:54;99608.78;;;7.51;75.08
62600;BME280;48671;48.922;2.346;2024-03-02T03:10:20;99604.50;;;7.50;74.65
62600;BME280;48671;48.922;2.346;2024-03-02T03:12:47;99593.06;;;7.35;74.68
62600;BME280;48671;48.922;2.346;2024-03-02T03:15:12;99619.81;;;7.55;74.73
62600;BME280;48671;48.922;2.346;2024-03-02T03:17:38;99613.94;;;7.51;74.44
62600;BME280;48671;48.922;2.346;2024-03-02T03:20:04;99572.78;;;7.26;74.32
62600;BME280;48671;48.922;2.346;2024-03-02T03:22:30;99612.97;;;7.54;74.58
62600;BME280;48671;48.922;2.346;2024-03-02T03:25:00;99591.91;;;7.42;74.45
62600;BME280;48671;48.922;2.346;2024-03-02T03:27:25;99587.88;;;7.35;74.46
62600;BME280;48671;48.922;2.346;2024-03-02T03:29:51;99612.41;;;7.47;74.41
62600;BME280;48671;48.922;2.346;2024-03-02T03:32:17;99589.78;;;7.32;74.33
62600;BME280;48671;48.922;2.346;2024-03-02T03:34:42;99575.28;;;7.27;75.14
62600;BME280;48671;48.922;2.346;2024-03-02T03:37:07;99594.94;;;7.32;74.51
62600;BME280;48671;48.922;2.346;2024-03-02T03:39:34;99597.66;;;7.28;74.57
62600;BME280;48671;48.922;2.346;2024-03-02T03:41:59;99579.91;;;7.21;75.21
62600;BME280;48671;48.922;2.346;2024-03-02T03:44:24;99602.22;;;7.23;74.90
62600;BME280;48671;48.922;2.346;2024-03-02T03:46:50;99591.34;;;7.15;74.95
62600;BME280;48671;48.922;2.346;2024-03-02T03:49:15;99575.44;;;7.04;75.19
62600;BME280;48671;48.922;2.346;2024-03-02T03:51:40;99582.69;;;7.16;75.38
62600;BME280;48671;48.922;2.346;2024-03-02T03:54:05;99607.19;;;7.28;75.12
62600;BME280;48671;48.922;2.346;2024-03-02T03:56:31;99590.59;;;7.13;75.08
62600;BME280;48671;48.922;2.346;2024-03-02T03:58:56;99598.91;;;7.20;74.92
62600;BME280;48671;48.922;2.346;2024-03-02T04:01:22;99603.25;;;7.19;75.13
62600;BME280;48671;48.922;2.346;2024-03-02T04:03:48;99606.16;;;7.12;75.38
62600;BME280;48671;48.922;2.346;2024-03-02T04:06:13;99558.06;;;6.87;75.62
62600;BME280;48671;48.922;2.346;2024-03-02T04:08:39;99580.16;;;6.94;75.29
62600;BME280;48671;48.922;2.346;2024-03-02T04:11:04;99579.25;;;6.95;76.20
62600;BME280;48671;48.922;2.346;2024-03-02T04:13:29;99580.66;;;7.02;75.82
62600;BME280;48671;48.922;2.346;2024-03-02T04:15:55;99571.00;;;6.87;75.93
62600;BME280;48671;48.922;2.346;2024-03-02T04:18:20;99599.22;;;7.12;75.88
62600;BME280;48671;48.922;2.346;2024-03-02T04:20:45;99580.66;;;7.02;76.12
62600;BME280;48671;48.922;2.346;2024-03-02T04:23:11;99592.38;;;7.11;76.03
62600;BME280;48671;48.922;2.346;2024-03-02T04:25:36;99557.72;;;6.95;76.07
62600;BME280;48671;48.922;2.346;2024-03-02T04:28:01;99599.31;;;7.11;75.92
62600;BME280;48671;48.922;2.346;2024-03-02T04:30:26;99577.50;;;6.96;75.92
62600;BME280;48671;48.922;2.346;2024-03-02T04:32:52;99587.22;;;6.91;75.83
62600;BME280;48671;48.922;2.346;2024-03-02T04:35:17;99573.81;;;6.81;76.19
62600;BME280;48671;48.922;2.346;2024-03-02T04:37:43;99564.19;;;6.85;76.58
62600;BME280;48671;48.922;2.346;2024-03-02T04:40:09;99598.72;;;7.04;76.37
62600;BME280;48671;48.922;2.346;2024-03-02T04:42:35;99588.38;;;7.04;75.90
62600;BME280;48671;48.922;2.346;2024-03-02T04:45:01;99567.22;;;6.94;75.96
62600;BME280;48671;48.922;2.346;2024-03-02T04:47:26;99604.66;;;7.06;75.43
62600;BME280;48671;48.922;2.346;2024-03-02T04:49:51;99595.31;;;7.03;75.55
62600;BME280;48671;48.922;2.346;2024-03-02T04:52:17;99573.31;;;6.93;75.65
62600;BME280;48671;48.922;2.346;2024-03-02T04:54:43;99551.44;;;6.80;75.36
62600;BME280;48671;48.922;2.346;2024-03-02T04:57:27;99559.06;;;6.83;75.66
62600;BME280;48671;48.922;2.346;2024-03-02T04:59:52;99601.34;;;7.02;75.77
62600;BME280;48671;48.922;2.346;2024-03-02T05:02:18;99582.88;;;6.91;75.82
62600;BME280;48671;48.922;2.346;2024-03-02T05:04:43;99587.72;;;6.99;75.49
62600;BME280;48671;48.922;2.346;2024-03-02T05:07:08;99598.00;;;7.00;75.75
62600;BME280;48671;48.922;2.346;2024-03-02T05:09:34;99604.19;;;6.96;76.16
62600;BME280;48671;48.922;2.346;2024-03-02T05:11:59;99578.63;;;6.90;76.42
62600;BME280;48671;48.922;2.346;2024-03-02T05:14:42;99590.31;;;6.99;75.99
62600;BME280;48671;48.922;2.346;2024-03-02T05:17:07;99574.91;;;6.96;76.01
62600;BME280;48671;48.922;2.346;2024-03-02T05:19:33;99535.56;;;6.69;76.25
62600;BME280;48671;48.922;2.346;2024-03-02T05:21:58;99548.59;;;6.86;76.20
62600;BME280;48671;48.922;2.346;2024-03-02T05:24:24;99579.97;;;6.99;76.07
62600;BME280;48671;48.922;2.346;2024-03-02T05:26:49;99553.47;;;6.94;76.04
62600;BME280;48671;48.922;2.346;2024-03-02T05:29:14;99553.38;;;6.95;76.13
62600;BME280;48671;48.922;2.346;2024-03-02T05:31:40;99563.81;;;6.94;75.96
62600;BME280;48671;48.922;2.346;2024-03-02T05:34:05;99547.00;;;6.84;76.32
62600;BME280;48671;48.922;2.346;2024-03-02T05:36:31;99563.56;;;7.00;76.16
62600;BME280;48671;48.922;2.346;2024-03-02T05:38:56;99556.75;;;6.97;76.76
62600;BME280;48671;48.922;2.346;2024-03-02T05:41:22;99544.88;;;6.93;76.59
62600;BME280;48671;48.922;2.346;2024-03-02T05:43:47;99564.28;;;7.03;76.55
62600;BME280;48671;48.922;2.346;2024-03-02T05:46:12;99561.16;;;6.95;76.55
62600;BME280;48671;48.922;2.346;2024-03-02T05:48:38;99558.69;;;6.92;76.42
62600;BME280;48671;48.922;2.346;2024-03-02T05:51:03;99538.25;;;6.86;76.93
62600;BME280;48671;48.922;2.346;2024-03-02T05:53:28;99559.97;;;7.02;76.77
62600;BME280;48671;48.922;2.346;2024-03-02T05:55:54;99560.84;;;7.03;76.88
62600;BME280;48671;48.922;2.346;2024-03-02T05:58:21;99529.88;;;6.81;77.44
62600;BME280;48671;48.922;2.346;2024-03-02T06:01:02;99557.72;;;6.95;77.78
62600;BME280;48671;48.922;2.346;2024-03-02T06:03:28;99567.94;;;6.98;77.18
62600;BME280;48671;48.922;2.346;2024-03-02T06:05:54;99545.06;;;6.89;76.93
62600;BME280;48671;48.922;2.346;2024-03-02T06:08:19;99542.56;;;6.87;77.31
62600;BME280;48671;48.922;2.346;2024-03-02T06:10:45;99571.19;;;7.03;77.08
62600;BME280;48671;48.922;2.346;2024-03-02T06:13:11;99552.56;;;6.95;77.44
62600;BME280;48671;48.922;2.346;2024-03-02T06:15:36;99569.22;;;7.08;77.46
62600;BME280;48671;48.922;2.346;2024-03-02T06:18:01;99563.44;;;7.03;77.50
62600;BME280;48671;48.922;2.346;2024-03-02T06:20:27;99576.19;;;7.06;77.36
62600;BME280;48671;48.922;2.346;2024-03-02T06:22:52;99555.06;;;6.96;77.32
62600;BME280;48671;48.922;2.346;2024-03-02T06:25:17;99573.50;;;7.09;77.95
62600;BME280;48671;48.922;2.346;2024-03-02T06:27:43;99547.06;;;7.02;77.66
62600;BME280;48671;48.922;2.346;2024-03-02T06:30:09;99569.94;;;7.12;77.86
62600;BME280;48671;48.922;2.346;2024-03-02T06:32:34;99558.75;;;7.11;77.95
62600;BME280;48671;48.922;2.346;2024-03-02T06:34:59;99543.44;;;7.07;77.66
62600;BME280;48671;48.922;2.346;2024-03-02T06:37:25;99541.00;;;7.03;77.32
62600;BME280;48671;48.922;2.346;2024-03-02T06:39:50;99551.91;;;7.10;77.74
62600;BME280;48671;48.922;2.346;2024-03-02T06:42:15;99543.44;;;7.07;77.84
62600;BME280;48671;48.922;2.346;2024-03-02T06:44:41;99527.16;;;7.04;77.51
62600;BME280;48671;48.922;2.346;2024-03-02T06:47:06;99548.19;;;7.16;77.85
62600;BME280;48671;48.922;2.346;2024-03-02T06:49:31;99532.25;;;7.06;77.87
62600;BME280;48671;48.922;2.346;2024-03-02T06:51:56;99543.38;;;7.08;78.61
62600;BME280;48671;48.922;2.346;2024-03-02T06:54:22;99543.94;;;7.15;78.20
62600;BME280;48671;48.922;2.346;2024-03-02T06:56:47;99538.16;;;7.10;77.97
62600;BME280;48671;48.922;2.346;2024-03-02T06:59:12;99562.69;;;7.20;77.96
62600;BME280;48671;48.922;2.346;2024-03-02T07:01:37;99533.16;;;7.05;78.29
62600;BME280;48671;48.922;2.346;2024-03-02T07:04:03;99564.28;;;7.22;78.30
62600;BME280;48671;48.922;2.346;2024-03-02T07:06:30;99517.50;;;7.08;78.23
62600;BME280;48671;48.922;2.346;2024-03-02T07:08:56;99519.53;;;7.01;78.12
62600;BME280;48671;48.922;2.346;2024-03-02T07:11:21;99544.34;;;7.26;78.34
62600;BME280;48671;48.922;2.346;2024-03-02T07:13:46;99519.88;;;7.13;78.64
62600;BME280;48671;48.922;2.346;2024-03-02T07:16:11;99517.16;;;7.16;78.43
62600;BME280;48671;48.922;2.346;2024-03-02T07:18:46;99533.91;;;7.27;78.61
62600;BME280;48671;48.922;2.346;2024-03-02T07:21:16;99540.81;;;7.27;78.53
62600;BME280;48671;48.922;2.346;2024-03-02T07:23:41;99511.16;;;7.15;78.50
62600;BME280;48671;48.922;2.346;2024-03-02T07:26:06;99523.81;;;7.21;78.96
62600;BME280;48671;48.922;2.346;2024-03-02T07:28:32;99550.00;;;7.34;78.74
62600;BME280;48671;48.922;2.346;2024-03-02T07:31:02;99527.88;;;7.27;78.95
62600;BME280;48671;48.922;2.346;2024-03-02T07:33:28;99545.22;;;7.25;79.72
62600;BME280;48671;48.922;2.346;2024-03-02T07:35:54;99535.44;;;7.32;79.21
62600;BME280;48671;48.922;2.346;2024-03-02T07:38:20;99511.59;;;7.25;79.73
62600;BME280;48671;48.922;2.346;2024-03-02T07:40:46;99537.50;;;7.44;79.35
62600;BME280;48671;48.922;2.346;2024-03-02T07:43:12;99539.16;;;7.45;79.58
62600;BME280;48671;48.922;2.346;2024-03-02T07:45:37;99514.28;;;7.42;79.07
62600;BME280;48671;48.922;2.346;2024-03-02T07:48:03;99541.78;;;7.64;79.04
62600;BME280;48671;48.922;2.346;2024-03-02T07:50:31;99545.00;;;7.69;78.60
62600;BME280;48671;48.922;2.346;2024-03-02T07:52:59;99540.38;;;7.76;78.57
62600;BME280;48671;48.922;2.346;2024-03-02T07:55:24;99537.44;;;7.83;78.53
62600;BME280;48671;48.922;2.346;2024-03-02T07:57:50;99489.22;;;7.62;77.85
62600;BME280;48671;48.922;2.346;2024-03-02T08:00:15;99524.88;;;7.93;77.65
62600;BME280;48671;48.922;2.346;2024-03-02T08:02:41;99510.91;;;7.78;77.59
62600;BME280;48671;48.922;2.346;2024-03-02T08:05:07;99513.84;;;7.89;77.61
62600;BME280;48671;48.922;2.346;2024-03-02T08:07:33;99522.72;;;8.03;77.17
62600;BME280;48671;48.922;2.346;2024-03-02T08:09:58;99539.50;;;8.13;77.08
62600;BME280;48671;48.922;2.346;2024-03-02T08:12:24;99512.13;;;8.07;76.73
62600;BME280;48671;48.922;2.346;2024-03-02T08:14:49;99524.94;;;8.10;76.81
62600;BME280;48671;48.922;2.346;2024-03-02T08:17:14;99524.72;;;8.15;76.67
62600;BME280;48671;48.922;2.346;2024-03-02T08:19:40;99535.00;;;8.16;76.34
62600;BME280;48671;48.922;2.346;2024-03-02T08:22:06;99538.28;;;8.20;76.63
62600;BME280;48671;48.922;2.346;2024-03-02T08:24:32;99531.28;;;8.22;76.26
62600;BME280;48671;48.922;2.346;2024-03-02T08:26:59;99537.69;;;8.32;76.46
62600;BME280;48671;48.922;2.346;2024-03-02T08:29:24;99512.22;;;8.23;76.13
62600;BME280;48671;48.922;2.346;2024-03-02T08:31:50;99524.13;;;8.27;76.51
62600;BME280;48671;48.922;2.346;2024-03-02T08:34:15;99519.84;;;8.26;76.49
62600;BME280;48671;48.922;2.346;2024-03-02T08:36:41;99529.16;;;8.30;76.45
62600;BME280;48671;48.922;2.346;2024-03-02T08:39:08;99511.41;;;8.23;76.14
62600;BME280;48671;48.922;2.346;2024-03-02T08:41:49;99527.06;;;8.38;76.24
62600;BME280;48671;48.922;2.346;2024-03-02T08:44:15;99513.19;;;8.39;75.81
62600;BME280;48671;48.922;2.346;2024-03-02T08:46:40;99516.97;;;8.32;75.68
62600;BME280;48671;48.922;2.346;2024-03-02T08:49:06;99527.66;;;8.43;75.23
62600;BME280;48671;48.922;2.346;2024-03-02T08:51:32;99534.47;;;8.46;75.26
62600;BME280;48671;48.922;2.346;2024-03-02T08:53:58;99528.38;;;8.47;75.22
62600;BME280;48671;48.922;2.346;2024-03-02T08:56:24;99535.25;;;8.48;74.79
62600;BME280;48671;48.922;2.346;2024-03-02T08:58:51;99484.56;;;8.24;74.65
62600;BME280;48671;48.922;2.346;2024-03-02T09:01:17;99519.22;;;8.40;74.22
62600;BME280;48671;48.922;2.346;2024-03-02T09:03:42;99542.03;;;8.51;74.23
62600;BME280;48671;48.922;2.346;2024-03-02T09:06:11;99543.56;;;8.55;74.47
62600;BME280;48671;48.922;2.346;2024-03-02T09:08:37;99522.44;;;8.45;74.64
62600;BME280;48671;48.922;2.346;2024-03-02T09:11:04;99518.91;;;8.46;75.11
62600;BME280;48671;48.922;2.346;2024-03-02T09:13:31;99540.91;;;8.74;76.20
62600;BME280;48671;48.922;2.346;2024-03-02T09:15:56;99524.56;;;8.72;74.70
62600;BME280;48671;48.922;2.346;2024-03-02T09:18:21;99525.03;;;8.62;74.58
62600;BME280;48671;48.922;2.346;2024-03-02T09:20:47;99524.63;;;8.53;75.01
62600;BME280;48671;48.922;2.346;2024-03-02T09:23:12;99538.28;;;8.56;75.29
62600;BME280;48671;48.922;2.346;2024-03-02T09:25:37;99535.00;;;8.53;75.52
62600;BME280;48671;48.922;2.346;2024-03-02T09:28:03;99517.47;;;8.40;76.39
62600;BME280;48671;48.922;2.346;2024-03-02T09:30:28;99517.47;;;8.40;76.40
62600;BME280;48671;48.922;2.346;2024-03-02T09:32:54;99520.19;;;8.37;76.54
62600;BME280;48671;48.922;2.346;2024-03-02T09:35:19;99511.09;;;8.29;77.45
62600;BME280;48671;48.922;2.346;2024-03-02T09:37:45;99520.53;;;8.30;77.67
62600;BME280;48671;48.922;2.346;2024-03-02T09:40:10;99523.75;;;8.35;77.73
62600;BME280;48671;48.922;2.346;2024-03-02T09:42:36;99524.69;;;8.34;78.28
62600;BME280;48671;48.922;2.346;2024-03-02T09:45:02;99513.69;;;8.29;78.41
62600;BME280;48671;48.922;2.346;2024-03-02T09:47:27;99498.66;;;8.18;78.44
62600;BME280;48671;48.922;2.346;2024-03-02T09:49:53;99500.88;;;8.26;79.08
62600;BME280;48671;48.922;2.346;2024-03-02T09:52:20;99493.78;;;8.29;79.47
62600;BME280;48671;48.922;2.346;2024-03-02T09:54:47;99501.28;;;8.35;79.18
62600;BME280;48671;48.922;2.346;2024-03-02T09:57:13;99511.13;;;8.46;79.31
62600;BME280;48671;48.922;2.346;2024-03-02T09:59:38;99469.41;;;8.33;78.97
62600;BME280;48671;48.922;2.346;2024-03-02T10:02:04;99492.78;;;8.51;79.10
62600;BME280;48671;48.922;2.346;2024-03-02T10:04:32;99485.84;;;8.51;79.99
62600;BME280;48671;48.922;2.346;2024-03-02T10:07:12;99486.00;;;8.48;79.50
62600;BME280;48671;48.922;2.346;2024-03-02T10:09:38;99485.53;;;8.57;79.94
62600;BME280;48671;48.922;2.346;2024-03-02T10:12:05;99475.53;;;8.50;79.87
62600;BME280;48671;48.922;2.346;2024-03-02T10:14:30;99462.25;;;8.56;79.56
62600;BME280;48671;48.922;2.346;2024-03-02T10:17:05;99468.44;;;8.71;79.94
62600;BME280;48671;48.922;2.346;2024-03-02T10:19:31;99471.72;;;8.74;80.71
62600;BME280;48671;48.922;2.346;2024-03-02T10:21:59;99446.41;;;8.62;80.16
62600;BME280;48671;48.922;2.346;2024-03-02T10:24:24;99453.19;;;8.64;80.09
62600;BME280;48671;48.922;2.346;2024-03-02T10:26:50;99451.72;;;8.76;80.76
62600;BME280;48671;48.922;2.346;2024-03-02T10:29:16;99450.88;;;8.76;80.82
62600;BME280;48671;48.922;2.346;2024-03-02T10:31:43;99462.69;;;8.81;80.39
62600;BME280;48671;48.922;2.346;2024-03-02T10:34:10;99458.19;;;8.85;80.13
62600;BME280;48671;48.922;2.346;2024-03-02T10:36:36;99440.59;;;8.74;80.57
62600;BME280;48671;48.922;2.346;2024-03-02T10:39:03;99460.47;;;8.91;80.62
62600;BME280;48671;48.922;2.346;2024-03-02T10:41:32;99452.94;;;8.86;81.02
62600;BME280;48671;48.922;2.346;2024-03-02T10:43:57;99452.44;;;8.96;81.06
62600;BME280;48671;48.922;2.346;2024-03-02T10:46:34;99465.19;;;9.00;80.28
62600;BME280;48671;48.922;2.346;2024-03-02T10:49:01;99437.03;;;8.93;80.09
62600;BME280;48671;48.922;2.346;2024-03-02T10:51:28;99457.25;;;9.03;80.84
62600;BME280;48671;48.922;2.346;2024-03-02T10:53:57;99452.94;;;9.02;81.04
62600;BME280;48671;48.922;2.346;2024-03-02T10:56:40;99443.44;;;9.03;81.63
62600;BME280;48671;48.922;2.346;2024-03-02T10:59:42;99453.31;;;9.12;81.14
62600;BME280;48671;48.922;2.346;2024-03-02T11:02:12;99444.19;;;9.05;80.58
62600;BME280;48671;48.922;2.346;2024-03-02T11:04:39;99454.91;;;9.14;81.43
62600;BME280;48671;48.922;2.346;2024-03-02T11:07:10;99448.78;;;9.00;79.53
62600;BME280;48671;48.922;2.346;2024-03-02T11:09:40;99440.34;;;9.12;80.12
62600;BME280;48671;48.922;2.346;2024-03-02T11:12:18;99444.03;;;9.08;79.89
62600;BME280;48671;48.922;2.346;2024-03-02T11:14:44;99440.28;;;9.13;79.97
62600;BME280;48671;48.922;2.346;2024-03-02T11:17:11;99456.50;;;9.17;80.36
62600;BME280;48671;48.922;2.346;2024-03-02T11:19:38;99455.50;;;9.20;79.66
62600;BME280;48671;48.922;2.346;2024-03-02T11:22:04;99443.28;;;9.22;79.69
62600;BME280;48671;48.922;2.346;2024-03-02T11:24:30;99443.06;;;9.26;78.87
62600;BME280;48671;48.922;2.346;2024-03-02T11:27:03;99443.78;;;9.28;78.86
62600;BME280;48671;48.922;2.346;2024-03-02T11:32:21;99447.47;;;9.24;79.54
62600;BME280;48671;48.922;2.346;2024-03-02T11:34:49;99444.03;;;9.24;79.74
62600;BME280;48671;48.922;2.346;2024-03-02T11:37:19;99444.16;;;9.22;79.35
62600;BME280;48671;48.922;2.346;2024-03-02T11:39:46;99447.56;;;9.23;79.97
62600;BME280;48671;48.922;2.346;2024-03-02T11:42:12;99427.97;;;9.17;80.36
62600;BME280;48671;48.922;2.346;2024-03-02T11:44:40;99442.72;;;9.32;80.34
62600;BME280;48671;48.922;2.346;2024-03-02T11:47:07;99447.91;;;9.32;79.21
62600;BME280;48671;48.922;2.346;2024-03-02T11:49:43;99435.34;;;9.41;80.03
62600;BME280;48671;48.922;2.346;2024-03-02T11:52:11;99437.78;;;9.44;76.34
62600;BME280;48671;48.922;2.346;2024-03-02T11:54:38;99421.63;;;9.38;75.09
62600;BME280;48671;48.922;2.346;2024-03-02T11:57:15;99412.91;;;9.40;74.72
62600;BME280;48671;48.922;2.346;2024-03-02T11:59:41;99408.81;;;9.35;75.77
62600;BME280;48671;48.922;2.346;2024-03-02T12:02:06;99398.00;;;9.27;74.71
62600;BME280;48671;48.922;2.346;2024-03-02T12:04:32;99413.16;;;9.35;74.68
62600;BME280;48671;48.922;2.346;2024-03-02T12:06:59;99434.94;;;9.48;74.81
62600;BME280;48671;48.922;2.346;2024-03-02T12:09:26;99413.66;;;9.42;74.78
62600;BME280;48671;48.922;2.346;2024-03-02T12:12:21;99420.53;;;9.43;73.96
62600;BME280;48671;48.922;2.346;2024-03-02T12:14:51;99411.97;;;9.41;74.57
62600;BME280;48671;48.922;2.346;2024-03-02T12:17:18;99413.75;;;9.40;74.56
62600;BME280;48671;48.922;2.346;2024-03-02T12:19:44;99398.28;;;9.38;75.41
62600;BME280;48671;48.922;2.346;2024-03-02T12:22:09;99411.38;;;9.51;75.55
62600;BME280;48671;48.922;2.346;2024-03-02T12:24:35;99402.53;;;9.55;75.54
62600;BME280;48671;48.922;2.346;2024-03-02T12:27:01;99411.16;;;9.56;75.50
62600;BME280;48671;48.922;2.346;2024-03-02T12:29:26;99391.03;;;9.44;75.35
62600;BME280;48671;48.922;2.346;2024-03-02T12:31:52;99398.84;;;9.44;75.50
62600;BME280;48671;48.922;2.346;2024-03-02T12:34:18;99415.50;;;9.55;75.55
62600;BME280;48671;48.922;2.346;2024-03-02T12:36:45;99412.91;;;9.55;76.08
62600;BME280;48671;48.922;2.346;2024-03-02T12:39:13;99417.00;;;9.59;76.18
62600;BME280;48671;48.922;2.346;2024-03-02T12:41:39;99418.84;;;9.57;75.79
62600;BME280;48671;48.922;2.346;2024-03-02T12:44:05;99399.84;;;9.41;75.47
62600;BME280;48671;48.922;2.346;2024-03-02T12:46:31;99388.88;;;9.36;76.50
62600;BME280;48671;48.922;2.346;2024-03-02T12:48:57;99390.66;;;9.35;74.35
62600;BME280;48671;48.922;2.346;2024-03-02T12:51:24;99403.09;;;9.45;75.49
62600;BME280;48671;48.922;2.346;2024-03-02T12:53:54;99397.50;;;9.52;76.19
62600;BME280;48671;48.922;2.346;2024-03-02T12:56:20;99392.97;;;9.56;75.25
62600;BME280;48671;48.922;2.346;2024-03-02T12:58:45;99403.44;;;9.54;74.34
62600;BME280;48671;48.922;2.346;2024-03-02T13:01:11;99400.94;;;9.53;74.25
62600;BME280;48671;48.922;2.346;2024-03-02T13:03:38;99394.06;;;9.52;73.60
62600;BME280;48671;48.922;2.346;2024-03-02T13:06:07;99396.66;;;9.52;73.90
62600;BME280;48671;48.922;2.346;2024-03-02T13:08:35;99393.31;;;9.50;74.22